sensor_id;sensor_type;location;lat;lon;timestamp;temperature;humidity
27633;DHT22;15046;50.930;13.334;2023-05-10T00:02:11;12.40;67.40
27633;DHT22;15046;50.930;13.334;2023-05-10T00:04:36;12.20;67.50
27633;DHT22;15046;50.930;13.334;2023-05-10T00:07:02;12.20;67.60
27633;DHT22;15046;50.930;13.334;2023-05-10T00:09:28;12.20;68.40
27633;DHT22;15046;50.930;13.334;2023-05-10T00:11:54;12.20;67.90
27633;DHT22;15046;50.930;13.334;2023-05-10T00:14:19;12.10;68.00
27633;DHT22;15046;50.930;13.334;2023-05-10T00:16:45;12.10;68.10
27633;DHT22;15046;50.930;13.334;2023-05-10T00:19:11;12.10;68.20
27633;DHT22;15046;50.930;13.334;2023-05-10T00:21:37;12.10;68.30
27633;DHT22;15046;50.930;13.334;2023-05-10T00:24:03;12.10;68.40
27633;DHT22;15046;50.930;13.334;2023-05-10T00:26:29;12.00;68.60
27633;DHT22;15046;50.930;13.334;2023-05-10T00:28:55;12.00;68.60
27633;DHT22;15046;50.930;13.334;2023-05-10T00:31:22;12.00;68.90
27633;DHT22;15046;50.930;13.334;2023-05-10T00:33:48;11.90;68.90
27633;DHT22;15046;50.930;13.334;2023-05-10T00:36:13;11.90;69.00
27633;DHT22;15046;50.930;13.334;2023-05-10T00:38:39;11.90;69.20
27633;DHT22;15046;50.930;13.334;2023-05-10T00:41:05;11.90;69.20
27633;DHT22;15046;50.930;13.334;2023-05-10T00:43:32;11.90;69.50
27633;DHT22;15046;50.930;13.334;2023-05-10T00:45:57;11.90;69.40
27633;DHT22;15046;50.930;13.334;2023-05-10T00:48:23;11.90;69.60
27633;DHT22;15046;50.930;13.334;2023-05-10T00:50:49;11.80;69.50
27633;DHT22;15046;50.930;13.334;2023-05-10T00:53:16;11.80;69.70
27633;DHT22;15046;50.930;13.334;2023-05-10T00:55:42;11.80;69.80
27633;DHT22;15046;50.930;13.334;2023-05-10T00:58:08;11.80;70.00
27633;DHT22;15046;50.930;13.334;2023-05-10T01:00:34;11.70;70.00
27633;DHT22;15046;50.930;13.334;2023-05-10T01:03:01;11.70;70.10
27633;DHT22;15046;50.930;13.334;2023-05-10T01:05:27;11.70;70.20
27633;DHT22;15046;50.930;13.334;2023-05-10T01:07:53;11.70;70.30
27633;DHT22;15046;50.930;13.334;2023-05-10T01:10:19;11.70;70.40
27633;DHT22;15046;50.930;13.334;2023-05-10T01:12:46;11.70;70.50
27633;DHT22;15046;50.930;13.334;2023-05-10T01:15:14;11.60;70.50
27633;DHT22;15046;50.930;13.334;2023-05-10T01:17:43;11.60;70.70
27633;DHT22;15046;50.930;13.334;2023-05-10T01:20:10;11.60;70.70
27633;DHT22;15046;50.930;13.334;2023-05-10T01:33:55;11.40;71.50
27633;DHT22;15046;50.930;13.334;2023-05-10T01:41:57;11.30;71.70
27633;DHT22;15046;50.930;13.334;2023-05-10T01:44:46;11.30;72.00
27633;DHT22;15046;50.930;13.334;2023-05-10T01:47:31;11.30;72.10
27633;DHT22;15046;50.930;13.334;2023-05-10T01:50:02;11.20;72.20
27633;DHT22;15046;50.930;13.334;2023-05-10T01:52:37;11.20;72.20
27633;DHT22;15046;50.930;13.334;2023-05-10T01:55:09;11.20;72.50
27633;DHT22;15046;50.930;13.334;2023-05-10T01:57:39;11.10;72.60
27633;DHT22;15046;50.930;13.334;2023-05-10T02:00:07;11.10;72.70
27633;DHT22;15046;50.930;13.334;2023-05-10T02:02:38;11.10;72.70
27633;DHT22;15046;50.930;13.334;2023-05-10T02:05:05;11.10;72.90
27633;DHT22;15046;50.930;13.334;2023-05-10T02:07:34;11.10;73.10
27633;DHT22;15046;50.930;13.334;2023-05-10T02:10:05;11.10;73.20
27633;DHT22;15046;50.930;13.334;2023-05-10T02:12:36;11.10;73.30
27633;DHT22;15046;50.930;13.334;2023-05-10T02:15:05;11.10;73.30
27633;DHT22;15046;50.930;13.334;2023-05-10T02:17:35;11.10;73.30
27633;DHT22;15046;50.930;13.334;2023-05-10T02:20:03;11.10;73.40
27633;DHT22;15046;50.930;13.334;2023-05-10T02:22:32;11.10;73.50
27633;DHT22;15046;50.930;13.334;2023-05-10T02:24:59;11.00;73.50
27633;DHT22;15046;50.930;13.334;2023-05-10T02:27:27;11.00;73.70
27633;DHT22;15046;50.930;13.334;2023-05-10T02:29:54;11.00;73.90
27633;DHT22;15046;50.930;13.334;2023-05-10T02:32:22;11.00;74.00
27633;DHT22;15046;50.930;13.334;2023-05-10T02:34:48;11.00;74.00
27633;DHT22;15046;50.930;13.334;2023-05-10T02:37:19;11.00;74.20
27633;DHT22;15046;50.930;13.334;2023-05-10T02:39:47;10.90;74.10
27633;DHT22;15046;50.930;13.334;2023-05-10T02:42:18;10.90;74.40
27633;DHT22;15046;50.930;13.334;2023-05-10T02:44:47;10.90;74.30
27633;DHT22;15046;50.930;13.334;2023-05-10T02:47:13;10.90;74.30
27633;DHT22;15046;50.930;13.334;2023-05-10T02:49:39;10.90;74.40
27633;DHT22;15046;50.930;13.334;2023-05-10T02:52:06;10.90;74.40
27633;DHT22;15046;50.930;13.334;2023-05-10T02:54:41;10.80;74.50
27633;DHT22;15046;50.930;13.334;2023-05-10T02:57:13;10.80;74.60
27633;DHT22;15046;50.930;13.334;2023-05-10T02:59:41;10.80;74.70
27633;DHT22;15046;50.930;13.334;2023-05-10T03:02:09;10.80;74.80
27633;DHT22;15046;50.930;13.334;2023-05-10T03:04:35;10.70;74.80
27633;DHT22;15046;50.930;13.334;2023-05-10T03:07:02;10.70;74.90
27633;DHT22;15046;50.930;13.334;2023-05-10T03:09:28;10.70;75.00
27633;DHT22;15046;50.930;13.334;2023-05-10T03:12:02;10.70;75.10
27633;DHT22;15046;50.930;13.334;2023-05-10T03:17:45;10.60;75.30
27633;DHT22;15046;50.930;13.334;2023-05-10T03:20:20;10.60;75.50
27633;DHT22;15046;50.930;13.334;2023-05-10T03:22:55;10.50;75.40
27633;DHT22;15046;50.930;13.334;2023-05-10T03:25:26;10.50;75.60
27633;DHT22;15046;50.930;13.334;2023-05-10T03:27:52;10.50;75.60
27633;DHT22;15046;50.930;13.334;2023-05-10T03:30:19;10.50;75.70
27633;DHT22;15046;50.930;13.334;2023-05-10T03:32:45;10.50;75.90
27633;DHT22;15046;50.930;13.334;2023-05-10T03:35:12;10.50;75.90
27633;DHT22;15046;50.930;13.334;2023-05-10T03:37:39;10.50;75.90
27633;DHT22;15046;50.930;13.334;2023-05-10T03:40:05;10.50;76.00
27633;DHT22;15046;50.930;13.334;2023-05-10T03:42:31;10.50;76.00
27633;DHT22;15046;50.930;13.334;2023-05-10T03:44:57;10.50;76.00
27633;DHT22;15046;50.930;13.334;2023-05-10T03:47:23;10.60;76.00
27633;DHT22;15046;50.930;13.334;2023-05-10T03:49:49;10.50;75.90
27633;DHT22;15046;50.930;13.334;2023-05-10T03:52:14;10.60;76.00
27633;DHT22;15046;50.930;13.334;2023-05-10T03:54:40;10.60;76.10
27633;DHT22;15046;50.930;13.334;2023-05-10T03:57:06;10.60;76.00
27633;DHT22;15046;50.930;13.334;2023-05-10T03:59:32;10.60;76.10
27633;DHT22;15046;50.930;13.334;2023-05-10T04:01:58;10.70;76.10
27633;DHT22;15046;50.930;13.334;2023-05-10T04:04:24;10.70;76.10
27633;DHT22;15046;50.930;13.334;2023-05-10T04:06:49;10.80;76.10
27633;DHT22;15046;50.930;13.334;2023-05-10T04:09:15;10.80;76.10
27633;DHT22;15046;50.930;13.334;2023-05-10T04:11:42;10.80;76.10
27633;DHT22;15046;50.930;13.334;2023-05-10T04:14:08;10.90;76.10
27633;DHT22;15046;50.930;13.334;2023-05-10T04:16:34;10.90;75.90
27633;DHT22;15046;50.930;13.334;2023-05-10T04:19:00;11.00;76.50
27633;DHT22;15046;50.930;13.334;2023-05-10T04:21:26;11.00;75.60
27633;DHT22;15046;50.930;13.334;2023-05-10T04:23:52;11.00;75.50
27633;DHT22;15046;50.930;13.334;2023-05-10T04:26:17;11.10;75.40
27633;DHT22;15046;50.930;13.334;2023-05-10T04:28:43;11.10;75.20
27633;DHT22;15046;50.930;13.334;2023-05-10T04:31:10;11.10;75.20
27633;DHT22;15046;50.930;13.334;2023-05-10T04:33:36;11.20;75.20
27633;DHT22;15046;50.930;13.334;2023-05-10T04:36:02;11.20;75.10
27633;DHT22;15046;50.930;13.334;2023-05-10T04:38:29;11.20;75.00
27633;DHT22;15046;50.930;13.334;2023-05-10T04:41:12;11.30;75.00
27633;DHT22;15046;50.930;13.334;2023-05-10T04:43:38;11.30;75.10
27633;DHT22;15046;50.930;13.334;2023-05-10T04:46:04;11.40;75.00
27633;DHT22;15046;50.930;13.334;2023-05-10T04:48:30;11.30;74.90
27633;DHT22;15046;50.930;13.334;2023-05-10T04:50:56;11.40;74.90
27633;DHT22;15046;50.930;13.334;2023-05-10T04:53:22;11.40;74.90
27633;DHT22;15046;50.930;13.334;2023-05-10T04:55:48;11.40;74.80
27633;DHT22;15046;50.930;13.334;2023-05-10T04:58:14;11.50;74.90
27633;DHT22;15046;50.930;13.334;2023-05-10T05:00:40;11.50;74.90
27633;DHT22;15046;50.930;13.334;2023-05-10T05:03:06;11.60;75.00
27633;DHT22;15046;50.930;13.334;2023-05-10T05:05:33;11.60;74.90
27633;DHT22;15046;50.930;13.334;2023-05-10T05:07:59;11.60;74.80
27633;DHT22;15046;50.930;13.334;2023-05-10T05:10:25;11.60;74.80
27633;DHT22;15046;50.930;13.334;2023-05-10T05:12:50;11.70;74.70
27633;DHT22;15046;50.930;13.334;2023-05-10T05:15:16;11.80;74.70
27633;DHT22;15046;50.930;13.334;2023-05-10T05:17:43;11.80;74.60
27633;DHT22;15046;50.930;13.334;2023-05-10T05:20:09;11.80;74.50
27633;DHT22;15046;50.930;13.334;2023-05-10T05:22:38;11.90;74.50
27633;DHT22;15046;50.930;13.334;2023-05-10T05:25:05;11.90;74.30
27633;DHT22;15046;50.930;13.334;2023-05-10T05:27:31;12.00;74.40
27633;DHT22;15046;50.930;13.334;2023-05-10T05:29:58;12.10;74.30
27633;DHT22;15046;50.930;13.334;2023-05-10T05:32:24;12.10;74.70
27633;DHT22;15046;50.930;13.334;2023-05-10T05:34:50;12.20;73.90
27633;DHT22;15046;50.930;13.334;2023-05-10T05:37:17;12.20;73.70
27633;DHT22;15046;50.930;13.334;2023-05-10T05:39:44;12.30;73.60
27633;DHT22;15046;50.930;13.334;2023-05-10T05:42:10;12.30;73.70
27633;DHT22;15046;50.930;13.334;2023-05-10T05:44:36;12.40;73.60
27633;DHT22;15046;50.930;13.334;2023-05-10T05:47:02;12.40;73.30
27633;DHT22;15046;50.930;13.334;2023-05-10T05:49:28;12.50;73.30
27633;DHT22;15046;50.930;13.334;2023-05-10T05:51:54;12.50;73.20
27633;DHT22;15046;50.930;13.334;2023-05-10T05:54:20;12.60;73.00
27633;DHT22;15046;50.930;13.334;2023-05-10T05:56:46;12.60;72.80
27633;DHT22;15046;50.930;13.334;2023-05-10T05:59:12;12.60;72.80
27633;DHT22;15046;50.930;13.334;2023-05-10T06:01:38;12.70;73.20
27633;DHT22;15046;50.930;13.334;2023-05-10T06:04:03;12.70;72.90
27633;DHT22;15046;50.930;13.334;2023-05-10T06:06:29;12.80;72.90
27633;DHT22;15046;50.930;13.334;2023-05-10T06:08:55;12.90;72.90
27633;DHT22;15046;50.930;13.334;2023-05-10T06:11:20;13.00;72.70
27633;DHT22;15046;50.930;13.334;2023-05-10T06:13:47;13.10;72.50
27633;DHT22;15046;50.930;13.334;2023-05-10T06:16:13;13.20;72.20
27633;DHT22;15046;50.930;13.334;2023-05-10T06:18:39;13.20;72.00
27633;DHT22;15046;50.930;13.334;2023-05-10T06:21:05;13.30;71.90
27633;DHT22;15046;50.930;13.334;2023-05-10T06:23:31;13.40;71.70
27633;DHT22;15046;50.930;13.334;2023-05-10T06:25:56;13.50;71.50
27633;DHT22;15046;50.930;13.334;2023-05-10T06:28:22;13.60;71.10
27633;DHT22;15046;50.930;13.334;2023-05-10T06:30:48;13.60;70.80
27633;DHT22;15046;50.930;13.334;2023-05-10T06:33:14;13.70;70.90
27633;DHT22;15046;50.930;13.334;2023-05-10T06:35:41;13.80;70.80
27633;DHT22;15046;50.930;13.334;2023-05-10T06:38:07;13.80;70.60
27633;DHT22;15046;50.930;13.334;2023-05-10T06:40:33;13.90;70.50
27633;DHT22;15046;50.930;13.334;2023-05-10T06:42:58;14.00;70.60
27633;DHT22;15046;50.930;13.334;2023-05-10T06:45:25;14.10;70.60
27633;DHT22;15046;50.930;13.334;2023-05-10T06:47:50;14.20;70.50
27633;DHT22;15046;50.930;13.334;2023-05-10T06:50:16;14.20;70.10
27633;DHT22;15046;50.930;13.334;2023-05-10T06:52:42;14.30;69.90
27633;DHT22;15046;50.930;13.334;2023-05-10T06:55:08;14.40;69.70
27633;DHT22;15046;50.930;13.334;2023-05-10T06:57:34;14.40;69.70
27633;DHT22;15046;50.930;13.334;2023-05-10T07:00:01;14.50;69.50
27633;DHT22;15046;50.930;13.334;2023-05-10T07:02:27;14.60;69.40
27633;DHT22;15046;50.930;13.334;2023-05-10T07:04:53;14.60;69.30
27633;DHT22;15046;50.930;13.334;2023-05-10T07:07:19;14.70;69.50
27633;DHT22;15046;50.930;13.334;2023-05-10T07:09:45;14.70;69.50
27633;DHT22;15046;50.930;13.334;2023-05-10T07:12:11;14.80;69.20
27633;DHT22;15046;50.930;13.334;2023-05-10T07:14:37;14.80;69.00
27633;DHT22;15046;50.930;13.334;2023-05-10T07:17:03;14.90;69.00
27633;DHT22;15046;50.930;13.334;2023-05-10T07:19:28;14.90;68.90
27633;DHT22;15046;50.930;13.334;2023-05-10T07:21:55;14.90;68.50
27633;DHT22;15046;50.930;13.334;2023-05-10T07:24:21;15.00;68.50
27633;DHT22;15046;50.930;13.334;2023-05-10T07:26:47;15.00;68.40
27633;DHT22;15046;50.930;13.334;2023-05-10T07:29:12;15.10;68.60
27633;DHT22;15046;50.930;13.334;2023-05-10T07:31:38;15.20;68.50
27633;DHT22;15046;50.930;13.334;2023-05-10T07:34:04;15.30;68.50
27633;DHT22;15046;50.930;13.334;2023-05-10T07:36:30;15.40;68.40
27633;DHT22;15046;50.930;13.334;2023-05-10T07:38:56;15.50;68.40
27633;DHT22;15046;50.930;13.334;2023-05-10T07:41:23;15.60;68.70
27633;DHT22;15046;50.930;13.334;2023-05-10T07:43:49;15.70;68.60
27633;DHT22;15046;50.930;13.334;2023-05-10T07:46:14;15.80;68.50
27633;DHT22;15046;50.930;13.334;2023-05-10T07:48:40;15.90;68.40
27633;DHT22;15046;50.930;13.334;2023-05-10T07:51:06;15.90;68.10
27633;DHT22;15046;50.930;13.334;2023-05-10T07:53:34;16.00;67.80
27633;DHT22;15046;50.930;13.334;2023-05-10T07:56:32;16.20;67.40
27633;DHT22;15046;50.930;13.334;2023-05-10T07:59:02;16.30;67.30
27633;DHT22;15046;50.930;13.334;2023-05-10T08:01:33;16.50;67.20
27633;DHT22;15046;50.930;13.334;2023-05-10T08:03:59;16.60;66.90
27633;DHT22;15046;50.930;13.334;2023-05-10T08:06:26;16.70;66.60
27633;DHT22;15046;50.930;13.334;2023-05-10T08:08:53;16.80;66.50
27633;DHT22;15046;50.930;13.334;2023-05-10T08:11:20;16.90;66.60
27633;DHT22;15046;50.930;13.334;2023-05-10T08:13:47;17.10;66.70
27633;DHT22;15046;50.930;13.334;2023-05-10T08:16:13;17.20;66.00
27633;DHT22;15046;50.930;13.334;2023-05-10T08:18:39;17.30;65.60
27633;DHT22;15046;50.930;13.334;2023-05-10T08:21:06;17.30;65.90
27633;DHT22;15046;50.930;13.334;2023-05-10T08:23:32;17.40;65.90
27633;DHT22;15046;50.930;13.334;2023-05-10T08:25:59;17.50;65.60
27633;DHT22;15046;50.930;13.334;2023-05-10T08:28:25;17.60;65.20
27633;DHT22;15046;50.930;13.334;2023-05-10T08:30:51;17.60;65.40
27633;DHT22;15046;50.930;13.334;2023-05-10T08:33:19;17.70;65.30
27633;DHT22;15046;50.930;13.334;2023-05-10T08:35:45;17.80;64.90
27633;DHT22;15046;50.930;13.334;2023-05-10T08:38:11;17.90;65.00
27633;DHT22;15046;50.930;13.334;2023-05-10T08:40:39;18.00;65.30
27633;DHT22;15046;50.930;13.334;2023-05-10T08:43:07;18.20;64.70
27633;DHT22;15046;50.930;13.334;2023-05-10T08:45:38;18.30;64.30
27633;DHT22;15046;50.930;13.334;2023-05-10T08:48:06;18.40;64.40
27633;DHT22;15046;50.930;13.334;2023-05-10T08:50:37;18.50;64.40
27633;DHT22;15046;50.930;13.334;2023-05-10T08:53:13;18.60;64.70
27633;DHT22;15046;50.930;13.334;2023-05-10T08:55:40;18.80;64.00
27633;DHT22;15046;50.930;13.334;2023-05-10T08:58:09;19.00;63.10
27633;DHT22;15046;50.930;13.334;2023-05-10T09:00:35;19.00;62.70
27633;DHT22;15046;50.930;13.334;2023-05-10T09:03:04;19.20;62.90
27633;DHT22;15046;50.930;13.334;2023-05-10T09:05:30;19.50;62.50
27633;DHT22;15046;50.930;13.334;2023-05-10T09:07:56;19.60;62.00
27633;DHT22;15046;50.930;13.334;2023-05-10T09:10:23;19.70;61.20
27633;DHT22;15046;50.930;13.334;2023-05-10T09:12:53;19.70;60.70
27633;DHT22;15046;50.930;13.334;2023-05-10T09:15:19;19.80;60.70
27633;DHT22;15046;50.930;13.334;2023-05-10T09:17:46;19.80;60.60
27633;DHT22;15046;50.930;13.334;2023-05-10T09:20:12;19.90;60.60
27633;DHT22;15046;50.930;13.334;2023-05-10T09:22:38;20.10;60.60
27633;DHT22;15046;50.930;13.334;2023-05-10T09:25:13;20.30;60.10
27633;DHT22;15046;50.930;13.334;2023-05-10T09:27:41;20.40;59.60
27633;DHT22;15046;50.930;13.334;2023-05-10T09:30:08;20.50;59.60
27633;DHT22;15046;50.930;13.334;2023-05-10T09:35:11;20.70;59.70
27633;DHT22;15046;50.930;13.334;2023-05-10T09:37:40;20.70;59.90
27633;DHT22;15046;50.930;13.334;2023-05-10T09:40:15;20.90;59.80
27633;DHT22;15046;50.930;13.334;2023-05-10T09:42:43;21.00;59.60
27633;DHT22;15046;50.930;13.334;2023-05-10T09:45:16;20.90;59.10
27633;DHT22;15046;50.930;13.334;2023-05-10T09:47:42;20.80;59.10
27633;DHT22;15046;50.930;13.334;2023-05-10T09:50:09;20.80;59.30
27633;DHT22;15046;50.930;13.334;2023-05-10T09:52:57;21.00;59.30
27633;DHT22;15046;50.930;13.334;2023-05-10T09:58:04;22.10;58.20
27633;DHT22;15046;50.930;13.334;2023-05-10T10:00:37;22.60;57.00
27633;DHT22;15046;50.930;13.334;2023-05-10T10:03:03;23.30;56.10
27633;DHT22;15046;50.930;13.334;2023-05-10T10:05:34;23.90;55.10
27633;DHT22;15046;50.930;13.334;2023-05-10T10:08:03;24.30;54.30
27633;DHT22;15046;50.930;13.334;2023-05-10T10:10:31;24.80;54.00
27633;DHT22;15046;50.930;13.334;2023-05-10T10:12:57;25.60;53.40
27633;DHT22;15046;50.930;13.334;2023-05-10T10:15:24;26.00;52.60
27633;DHT22;15046;50.930;13.334;2023-05-10T10:17:50;25.60;52.00
27633;DHT22;15046;50.930;13.334;2023-05-10T10:20:18;24.90;52.60
27633;DHT22;15046;50.930;13.334;2023-05-10T10:22:44;24.40;53.10
27633;DHT22;15046;50.930;13.334;2023-05-10T10:25:17;24.30;53.30
27633;DHT22;15046;50.930;13.334;2023-05-10T10:30:30;24.30;53.30
27633;DHT22;15046;50.930;13.334;2023-05-10T10:35:41;24.30;53.00
27633;DHT22;15046;50.930;13.334;2023-05-10T10:38:08;24.30;52.70
27633;DHT22;15046;50.930;13.334;2023-05-10T10:40:35;24.20;53.50
27633;DHT22;15046;50.930;13.334;2023-05-10T10:43:27;24.30;53.30
27633;DHT22;15046;50.930;13.334;2023-05-10T10:48:36;25.80;52.70
27633;DHT22;15046;50.930;13.334;2023-05-10T10:51:02;26.00;52.00
27633;DHT22;15046;50.930;13.334;2023-05-10T10:53:28;26.50;51.40
27633;DHT22;15046;50.930;13.334;2023-05-10T10:56:11;27.20;50.80
27633;DHT22;15046;50.930;13.334;2023-05-10T10:58:39;28.20;49.40
27633;DHT22;15046;50.930;13.334;2023-05-10T11:01:16;27.70;48.60
27633;DHT22;15046;50.930;13.334;2023-05-10T11:06:41;26.30;49.60
27633;DHT22;15046;50.930;13.334;2023-05-10T11:09:09;25.80;51.00
27633;DHT22;15046;50.930;13.334;2023-05-10T11:11:36;25.80;50.80
27633;DHT22;15046;50.930;13.334;2023-05-10T11:14:13;25.60;51.10
27633;DHT22;15046;50.930;13.334;2023-05-10T11:16:43;25.20;51.00
27633;DHT22;15046;50.930;13.334;2023-05-10T11:19:11;24.70;51.70
27633;DHT22;15046;50.930;13.334;2023-05-10T11:24:31;25.40;51.20
27633;DHT22;15046;50.930;13.334;2023-05-10T11:26:57;25.80;50.60
27633;DHT22;15046;50.930;13.334;2023-05-10T11:29:22;25.60;50.20
27633;DHT22;15046;50.930;13.334;2023-05-10T11:31:51;25.20;50.80
27633;DHT22;15046;50.930;13.334;2023-05-10T11:34:31;25.20;51.60
27633;DHT22;15046;50.930;13.334;2023-05-10T11:36:59;25.40;51.20
27633;DHT22;15046;50.930;13.334;2023-05-10T11:39:30;25.10;51.00
27633;DHT22;15046;50.930;13.334;2023-05-10T11:41:57;24.70;51.60
27633;DHT22;15046;50.930;13.334;2023-05-10T11:44:23;24.30;51.90
27633;DHT22;15046;50.930;13.334;2023-05-10T11:46:50;24.00;52.30
27633;DHT22;15046;50.930;13.334;2023-05-10T11:49:16;23.80;52.80
27633;DHT22;15046;50.930;13.334;2023-05-10T11:51:42;23.60;53.30
27633;DHT22;15046;50.930;13.334;2023-05-10T11:54:10;23.30;54.00
27633;DHT22;15046;50.930;13.334;2023-05-10T11:56:38;23.00;54.60
27633;DHT22;15046;50.930;13.334;2023-05-10T11:59:04;22.90;55.50
27633;DHT22;15046;50.930;13.334;2023-05-10T12:01:30;22.90;55.70
27633;DHT22;15046;50.930;13.334;2023-05-10T12:03:57;22.70;55.90
27633;DHT22;15046;50.930;13.334;2023-05-10T12:06:30;22.60;56.30
27633;DHT22;15046;50.930;13.334;2023-05-10T12:08:56;22.50;57.30
27633;DHT22;15046;50.930;13.334;2023-05-10T12:11:27;22.20;57.40
27633;DHT22;15046;50.930;13.334;2023-05-10T12:13:54;22.00;58.20
27633;DHT22;15046;50.930;13.334;2023-05-10T12:16:25;21.70;58.90
27633;DHT22;15046;50.930;13.334;2023-05-10T12:18:52;21.50;59.40
27633;DHT22;15046;50.930;13.334;2023-05-10T12:21:22;21.60;59.30
27633;DHT22;15046;50.930;13.334;2023-05-10T12:23:52;21.50;59.30
27633;DHT22;15046;50.930;13.334;2023-05-10T12:26:21;21.60;59.60
27633;DHT22;15046;50.930;13.334;2023-05-10T12:28:47;21.60;59.60
27633;DHT22;15046;50.930;13.334;2023-05-10T12:31:13;21.80;59.60
27633;DHT22;15046;50.930;13.334;2023-05-10T12:33:41;22.00;59.00
27633;DHT22;15046;50.930;13.334;2023-05-10T12:36:12;22.20;59.00
27633;DHT22;15046;50.930;13.334;2023-05-10T12:38:43;22.30;58.80
27633;DHT22;15046;50.930;13.334;2023-05-10T12:41:10;22.30;58.70
27633;DHT22;15046;50.930;13.334;2023-05-10T12:43:37;22.60;58.30
27633;DHT22;15046;50.930;13.334;2023-05-10T12:46:11;22.70;58.10
27633;DHT22;15046;50.930;13.334;2023-05-10T12:48:39;22.90;58.00
27633;DHT22;15046;50.930;13.334;2023-05-10T12:51:05;23.00;57.80
27633;DHT22;15046;50.930;13.334;2023-05-10T12:53:35;22.80;58.10
27633;DHT22;15046;50.930;13.334;2023-05-10T12:56:01;23.20;58.60
27633;DHT22;15046;50.930;13.334;2023-05-10T12:58:27;24.20;57.30
27633;DHT22;15046;50.930;13.334;2023-05-10T13:00:53;25.10;56.00
27633;DHT22;15046;50.930;13.334;2023-05-10T13:03:20;25.80;55.10
27633;DHT22;15046;50.930;13.334;2023-05-10T13:05:46;26.00;54.60
27633;DHT22;15046;50.930;13.334;2023-05-10T13:08:12;26.10;54.20
27633;DHT22;15046;50.930;13.334;2023-05-10T13:10:38;25.90;54.30
27633;DHT22;15046;50.930;13.334;2023-05-10T13:13:03;25.80;54.70
27633;DHT22;15046;50.930;13.334;2023-05-10T13:15:29;25.40;55.30
27633;DHT22;15046;50.930;13.334;2023-05-10T13:17:55;25.60;55.60
27633;DHT22;15046;50.930;13.334;2023-05-10T13:20:21;25.80;55.10
27633;DHT22;15046;50.930;13.334;2023-05-10T13:22:46;25.80;55.30
27633;DHT22;15046;50.930;13.334;2023-05-10T13:25:13;25.70;55.40
27633;DHT22;15046;50.930;13.334;2023-05-10T13:27:39;25.50;55.90
27633;DHT22;15046;50.930;13.334;2023-05-10T13:30:06;25.40;56.00
27633;DHT22;15046;50.930;13.334;2023-05-10T13:32:33;25.10;55.80
27633;DHT22;15046;50.930;13.334;2023-05-10T13:34:58;24.80;56.20
27633;DHT22;15046;50.930;13.334;2023-05-10T13:37:24;24.30;56.90
27633;DHT22;15046;50.930;13.334;2023-05-10T13:39:50;23.70;57.70
27633;DHT22;15046;50.930;13.334;2023-05-10T13:42:16;23.00;58.60
27633;DHT22;15046;50.930;13.334;2023-05-10T13:44:42;22.30;60.00
27633;DHT22;15046;50.930;13.334;2023-05-10T13:47:08;21.90;60.90
27633;DHT22;15046;50.930;13.334;2023-05-10T13:49:34;21.60;61.70
27633;DHT22;15046;50.930;13.334;2023-05-10T13:52:00;21.20;62.30
27633;DHT22;15046;50.930;13.334;2023-05-10T13:54:33;21.00;63.00
27633;DHT22;15046;50.930;13.334;2023-05-10T13:56:59;20.80;63.40
27633;DHT22;15046;50.930;13.334;2023-05-10T13:59:25;20.60;64.20
27633;DHT22;15046;50.930;13.334;2023-05-10T14:01:51;20.60;64.40
27633;DHT22;15046;50.930;13.334;2023-05-10T14:04:17;20.50;64.90
27633;DHT22;15046;50.930;13.334;2023-05-10T14:06:42;20.40;65.00
27633;DHT22;15046;50.930;13.334;2023-05-10T14:09:08;20.50;65.30
27633;DHT22;15046;50.930;13.334;2023-05-10T14:11:34;20.40;65.00
27633;DHT22;15046;50.930;13.334;2023-05-10T14:14:00;20.20;65.60
27633;DHT22;15046;50.930;13.334;2023-05-10T14:16:25;20.10;65.90
27633;DHT22;15046;50.930;13.334;2023-05-10T14:18:52;20.00;66.30
27633;DHT22;15046;50.930;13.334;2023-05-10T14:21:18;20.00;66.40
27633;DHT22;15046;50.930;13.334;2023-05-10T14:23:44;19.80;66.70
27633;DHT22;15046;50.930;13.334;2023-05-10T14:26:10;19.70;67.30
27633;DHT22;15046;50.930;13.334;2023-05-10T14:28:36;19.80;67.60
27633;DHT22;15046;50.930;13.334;2023-05-10T14:31:01;19.80;67.10
27633;DHT22;15046;50.930;13.334;2023-05-10T14:33:27;19.60;67.60
27633;DHT22;15046;50.930;13.334;2023-05-10T14:35:54;19.50;67.90
27633;DHT22;15046;50.930;13.334;2023-05-10T14:38:22;19.20;68.50
27633;DHT22;15046;50.930;13.334;2023-05-10T14:40:47;19.00;69.30
27633;DHT22;15046;50.930;13.334;2023-05-10T14:43:13;18.80;69.80
27633;DHT22;15046;50.930;13.334;2023-05-10T14:45:39;18.70;70.20
27633;DHT22;15046;50.930;13.334;2023-05-10T14:48:05;18.60;70.60
27633;DHT22;15046;50.930;13.334;2023-05-10T14:50:31;18.60;70.60
27633;DHT22;15046;50.930;13.334;2023-05-10T14:52:58;18.50;70.90
27633;DHT22;15046;50.930;13.334;2023-05-10T14:55:24;18.50;71.20
27633;DHT22;15046;50.930;13.334;2023-05-10T14:57:51;18.40;71.40
27633;DHT22;15046;50.930;13.334;2023-05-10T15:00:17;18.30;71.60
27633;DHT22;15046;50.930;13.334;2023-05-10T15:02:44;18.30;71.80
27633;DHT22;15046;50.930;13.334;2023-05-10T15:05:10;18.10;72.10
27633;DHT22;15046;50.930;13.334;2023-05-10T15:07:36;18.10;72.40
27633;DHT22;15046;50.930;13.334;2023-05-10T15:10:02;18.10;72.30
27633;DHT22;15046;50.930;13.334;2023-05-10T15:12:28;18.10;72.50
27633;DHT22;15046;50.930;13.334;2023-05-10T15:14:54;18.00;72.40
27633;DHT22;15046;50.930;13.334;2023-05-10T15:17:20;17.90;72.70
27633;DHT22;15046;50.930;13.334;2023-05-10T15:19:45;17.80;73.00
27633;DHT22;15046;50.930;13.334;2023-05-10T15:22:11;17.80;73.20
27633;DHT22;15046;50.930;13.334;2023-05-10T15:24:37;17.90;73.10
27633;DHT22;15046;50.930;13.334;2023-05-10T15:27:03;18.00;73.20
27633;DHT22;15046;50.930;13.334;2023-05-10T15:29:29;18.20;72.90
27633;DHT22;15046;50.930;13.334;2023-05-10T15:31:55;18.30;72.70
27633;DHT22;15046;50.930;13.334;2023-05-10T15:34:21;18.20;72.60
27633;DHT22;15046;50.930;13.334;2023-05-10T15:36:47;18.20;73.00
27633;DHT22;15046;50.930;13.334;2023-05-10T15:39:13;18.40;72.80
27633;DHT22;15046;50.930;13.334;2023-05-10T15:41:40;18.40;72.70
27633;DHT22;15046;50.930;13.334;2023-05-10T15:44:06;18.50;72.70
27633;DHT22;15046;50.930;13.334;2023-05-10T15:46:31;18.60;72.70
27633;DHT22;15046;50.930;13.334;2023-05-10T15:48:57;18.70;72.40
27633;DHT22;15046;50.930;13.334;2023-05-10T15:51:26;18.70;72.40
27633;DHT22;15046;50.930;13.334;2023-05-10T15:53:52;18.70;73.10
27633;DHT22;15046;50.930;13.334;2023-05-10T15:56:17;18.70;72.40